Time;durP1;ratioP1;P1;durP2;ratioP2;P2;SDS_P1;SDS_P2;PMS_P1;PMS_P2;Temp;Humidity;BMP_temperature;BMP_pressure;BME280_temperature;BME280_humidity;BME280_pressure;Samples;Min_cycle;Max_cycle;Signal;HPM_P1;HPM_P2
2022/08/16 00:00:17;;;;;;;;;;;19.00;58.50;;;;;;5072549;28;19999;-77
2022/08/16 00:02:42;;;;;;;;;;;19.00;58.50;;;;;;5090472;28;19965;-77
2022/08/16 00:05:09;;;;;;;;;;;19.00;58.60;;;;;;5089395;28;19912;-77
2022/08/16 00:07:34;;;;;;;;;;;18.90;58.60;;;;;;5090516;28;19912;-77
2022/08/16 00:10:00;;;;;;;;;;;18.90;58.60;;;;;;5089237;28;20326;-77
2022/08/16 00:12:26;;;;;;;;;;;18.90;58.60;;;;;;5088995;28;19967;-77
2022/08/16 00:14:52;;;;;;;;;;;18.90;58.50;;;;;;5088840;28;19916;-77
2022/08/16 00:17:18;;;;;;;;;;;18.90;58.60;;;;;;5089094;28;19916;-77
2022/08/16 00:19:44;;;;;;;;;;;18.90;58.60;;;;;;5090165;28;19977;-77
2022/08/16 00:22:10;;;;;;;;;;;18.90;58.60;;;;;;5071982;28;19923;-76
2022/08/16 00:24:35;;;;;;;;;;;18.80;58.60;;;;;;5088770;28;19957;-77
2022/08/16 00:27:02;;;;;;;;;;;18.80;58.70;;;;;;5088530;28;19916;-76
2022/08/16 00:29:27;;;;;;;;;;;18.80;58.70;;;;;;5071702;28;19919;-77
2022/08/16 00:31:53;;;;;;;;;;;18.80;58.70;;;;;;5088780;28;19932;-77
2022/08/16 00:34:20;;;;;;;;;;;18.80;58.70;;;;;;5088649;28;20382;-77
2022/08/16 00:36:46;;;;;;;;;;;18.70;58.60;;;;;;5089973;28;20283;-76
2022/08/16 00:39:13;;;;;;;;;;;18.70;58.70;;;;;;5087373;28;20279;-77
2022/08/16 00:41:39;;;;;;;;;;;18.60;58.80;;;;;;5089854;28;19923;-77
2022/08/16 00:44:09;;;;;;;;;;;18.60;58.80;;;;;;5088460;28;20368;-77
2022/08/16 00:46:56;;;;;;;;;;;18.60;58.80;;;;;;5088596;28;19930;-77
2022/08/16 00:49:23;;;;;;;;;;;18.60;58.70;;;;;;5089712;28;19908;-76
2022/08/16 00:51:49;;;;;;;;;;;18.60;58.70;;;;;;5088406;28;20303;-76
2022/08/16 00:54:15;;;;;;;;;;;18.50;58.70;;;;;;5089551;28;20351;-76
2022/08/16 00:56:42;;;;;;;;;;;18.50;58.70;;;;;;5088353;28;20024;-76
2022/08/16 00:59:09;;;;;;;;;;;18.50;58.70;;;;;;5088081;28;19909;-76
2022/08/16 01:01:34;;;;;;;;;;;18.50;58.80;;;;;;5088096;28;19909;-76
2022/08/16 01:04:01;;;;;;;;;;;18.50;58.70;;;;;;5088256;28;19908;-76
2022/08/16 01:06:27;;;;;;;;;;;18.40;58.70;;;;;;5089330;28;20098;-76
2022/08/16 01:08:55;;;;;;;;;;;18.40;58.70;;;;;;5087998;28;19919;-76
2022/08/16 01:11:24;;;;;;;;;;;18.40;58.80;;;;;;5087937;28;19908;-77
2022/08/16 01:13:51;;;;;;;;;;;18.40;58.80;;;;;;5087704;28;19994;-76
2022/08/16 01:16:24;;;;;;;;;;;18.40;58.80;;;;;;5089172;28;19930;-77
2022/08/16 01:18:51;;;;;;;;;;;18.30;58.70;;;;;;5088018;28;19927;-76
2022/08/16 01:21:17;;;;;;;;;;;18.30;58.80;;;;;;5089127;28;19915;-77
2022/08/16 01:23:46;;;;;;;;;;;18.30;58.80;;;;;;5088107;28;20364;-76
2022/08/16 01:26:13;;;;;;;;;;;18.20;58.80;;;;;;5089024;28;19915;-76
2022/08/16 01:28:40;;;;;;;;;;;18.30;58.80;;;;;;5088981;28;19919;-76
2022/08/16 01:31:07;;;;;;;;;;;18.30;58.70;;;;;;5089089;28;20356;-76
2022/08/16 01:33:32;;;;;;;;;;;18.30;58.80;;;;;;5087625;28;20425;-76
2022/08/16 01:36:04;;;;;;;;;;;18.30;58.80;;;;;;5087468;28;19912;-76
2022/08/16 01:38:31;;;;;;;;;;;18.30;58.80;;;;;;5087275;28;20023;-77
2022/08/16 01:40:59;;;;;;;;;;;18.30;58.80;;;;;;5087334;28;19920;-77
2022/08/16 01:43:25;;;;;;;;;;;18.30;58.80;;;;;;5088812;28;20360;-77
2022/08/16 01:45:55;;;;;;;;;;;18.30;58.70;;;;;;5088620;28;19957;-77
2022/08/16 01:48:22;;;;;;;;;;;18.20;58.70;;;;;;5087294;28;20004;-77
2022/08/16 01:50:49;;;;;;;;;;;18.20;58.90;;;;;;5088329;28;19915;-77
2022/08/16 01:53:15;;;;;;;;;;;18.20;58.90;;;;;;5088443;28;20530;-76
2022/08/16 01:55:41;;;;;;;;;;;18.20;58.80;;;;;;5087089;28;19934;-77
2022/08/16 01:58:07;;;;;;;;;;;18.20;58.80;;;;;;5070538;28;19916;-77
2022/08/16 02:00:33;;;;;;;;;;;18.20;58.80;;;;;;5088449;28;20445;-76
2022/08/16 02:02:59;;;;;;;;;;;18.20;58.90;;;;;;5088459;28;19970;-77
2022/08/16 02:05:24;;;;;;;;;;;18.20;58.90;;;;;;5087023;28;19908;-77
2022/08/16 02:07:50;;;;;;;;;;;18.20;58.90;;;;;;5086793;28;19913;-77
2022/08/16 02:10:16;;;;;;;;;;;18.20;58.90;;;;;;5087265;28;19916;-77
2022/08/16 02:12:41;;;;;;;;;;;18.20;58.90;;;;;;5070015;28;19916;-77
2022/08/16 02:15:07;;;;;;;;;;;18.30;58.90;;;;;;5088162;28;19947;-77
2022/08/16 02:17:33;;;;;;;;;;;18.30;58.90;;;;;;5086711;28;19969;-77
2022/08/16 02:19:59;;;;;;;;;;;18.30;59.40;;;;;;5087012;28;19913;-77
2022/08/16 02:22:24;;;;;;;;;;;18.40;58.90;;;;;;5086857;28;19912;-77
2022/08/16 02:24:50;;;;;;;;;;;18.40;58.80;;;;;;5086791;28;20016;-77
2022/08/16 02:27:16;;;;;;;;;;;18.50;58.70;;;;;;5088095;28;19958;-77
2022/08/16 02:29:42;;;;;;;;;;;18.40;58.70;;;;;;5088555;28;20015;-77
2022/08/16 02:32:12;;;;;;;;;;;18.40;58.70;;;;;;5086799;28;19916;-77
2022/08/16 02:34:37;;;;;;;;;;;18.40;58.80;;;;;;5087982;28;19916;-77
2022/08/16 02:37:03;;;;;;;;;;;18.40;58.80;;;;;;5086608;28;19912;-77
2022/08/16 02:39:28;;;;;;;;;;;18.40;58.90;;;;;;5087942;28;19916;-77
2022/08/16 02:41:54;;;;;;;;;;;18.30;58.80;;;;;;5087828;28;19924;-77
2022/08/16 02:44:20;;;;;;;;;;;18.30;58.80;;;;;;5086622;28;19913;-77
2022/08/16 02:46:46;;;;;;;;;;;18.20;58.70;;;;;;5086660;28;19917;-77
2022/08/16 02:49:12;;;;;;;;;;;18.10;58.80;;;;;;5069751;28;19912;-77
2022/08/16 02:51:38;;;;;;;;;;;18.00;58.80;;;;;;5086504;28;19970;-76
2022/08/16 02:54:04;;;;;;;;;;;17.90;58.80;;;;;;5086419;28;20352;-77
2022/08/16 02:56:30;;;;;;;;;;;17.80;58.90;;;;;;5069662;28;19916;-77
2022/08/16 02:58:56;;;;;;;;;;;17.70;59.00;;;;;;5086567;28;19918;-77
2022/08/16 03:01:24;;;;;;;;;;;17.50;59.10;;;;;;5086476;28;20296;-77
2022/08/16 03:03:50;;;;;;;;;;;17.50;59.20;;;;;;5090745;28;19939;-76
2022/08/16 03:06:19;;;;;;;;;;;17.40;59.30;;;;;;5090418;28;20375;-77
2022/08/16 03:08:45;;;;;;;;;;;17.40;59.30;;;;;;5090268;28;20360;-77
2022/08/16 03:11:11;;;;;;;;;;;17.40;59.10;;;;;;5090242;28;19908;-77
2022/08/16 03:13:37;;;;;;;;;;;17.40;59.10;;;;;;5090282;28;20010;-77
2022/08/16 03:16:03;;;;;;;;;;;17.30;59.10;;;;;;5090214;28;19951;-77
2022/08/16 03:18:29;;;;;;;;;;;17.30;59.20;;;;;;5091493;28;19948;-77
2022/08/16 03:20:55;;;;;;;;;;;17.30;59.20;;;;;;5090328;28;19912;-77
2022/08/16 03:23:21;;;;;;;;;;;17.30;59.20;;;;;;5091432;28;20326;-77
2022/08/16 03:25:47;;;;;;;;;;;17.30;59.10;;;;;;5091440;28;19908;-76
2022/08/16 03:28:13;;;;;;;;;;;17.40;59.20;;;;;;5072932;28;19938;-77
2022/08/16 03:30:38;;;;;;;;;;;17.40;59.10;;;;;;5090061;28;19946;-77
2022/08/16 03:33:04;;;;;;;;;;;17.40;59.00;;;;;;5089868;28;20284;-77
2022/08/16 03:35:31;;;;;;;;;;;17.50;59.00;;;;;;5090127;28;20322;-76
2022/08/16 03:37:58;;;;;;;;;;;17.40;59.00;;;;;;5091213;28;19914;-77
2022/08/16 03:40:23;;;;;;;;;;;17.40;59.00;;;;;;5091181;28;20380;-77
2022/08/16 03:42:49;;;;;;;;;;;17.40;59.00;;;;;;5089878;28;19916;-77
2022/08/16 03:45:15;;;;;;;;;;;17.50;59.10;;;;;;5072760;28;20336;-76
2022/08/16 03:47:41;;;;;;;;;;;17.60;59.00;;;;;;5072559;28;19912;-76
2022/08/16 03:50:07;;;;;;;;;;;17.60;59.00;;;;;;5090789;28;20300;-77
2022/08/16 03:52:34;;;;;;;;;;;17.60;58.80;;;;;;5089432;28;19916;-76
2022/08/16 03:55:00;;;;;;;;;;;17.80;58.70;;;;;;5090306;28;19930;-76
2022/08/16 03:57:26;;;;;;;;;;;17.80;58.70;;;;;;5088844;28;20411;-75
2022/08/16 03:59:52;;;;;;;;;;;17.80;58.70;;;;;;5089177;28;19924;-73
2022/08/16 04:02:17;;;;;;;;;;;17.70;58.70;;;;;;5090580;28;19916;-76
2022/08/16 04:04:43;;;;;;;;;;;17.60;58.70;;;;;;5090616;28;19912;-76
2022/08/16 04:07:09;;;;;;;;;;;17.50;58.80;;;;;;5072052;28;19916;-76
2022/08/16 04:09:35;;;;;;;;;;;17.50;58.80;;;;;;5090465;28;19912;-76
2022/08/16 04:12:00;;;;;;;;;;;17.40;58.80;;;;;;5089306;28;20360;-77
2022/08/16 04:14:26;;;;;;;;;;;17.30;59.00;;;;;;5072050;28;19946;-77
2022/08/16 04:16:51;;;;;;;;;;;17.20;59.50;;;;;;5090434;28;19912;-77
2022/08/16 04:19:17;;;;;;;;;;;17.20;59.10;;;;;;5072272;28;20360;-76
2022/08/16 04:21:42;;;;;;;;;;;17.20;59.10;;;;;;5089250;28;19912;-77
2022/08/16 04:24:08;;;;;;;;;;;17.20;58.90;;;;;;5088875;28;20023;-77
2022/08/16 04:26:34;;;;;;;;;;;17.20;58.90;;;;;;5089036;28;20375;-77
2022/08/16 04:29:00;;;;;;;;;;;17.10;59.00;;;;;;5090059;28;19909;-76
2022/08/16 04:31:25;;;;;;;;;;;17.10;59.00;;;;;;5090207;28;19961;-77
2022/08/16 04:33:52;;;;;;;;;;;17.10;59.00;;;;;;5089951;28;19923;-77
2022/08/16 04:36:18;;;;;;;;;;;17.10;59.10;;;;;;5090138;28;19942;-77
2022/08/16 04:38:43;;;;;;;;;;;17.10;59.00;;;;;;5071727;28;19960;-77
2022/08/16 04:41:09;;;;;;;;;;;17.10;58.90;;;;;;5088660;28;19939;-78
2022/08/16 04:43:37;;;;;;;;;;;17.10;59.00;;;;;;5071759;28;20372;-77
2022/08/16 04:46:03;;;;;;;;;;;17.10;59.00;;;;;;5088311;28;19915;-77
2022/08/16 04:48:28;;;;;;;;;;;17.10;58.90;;;;;;5088628;28;19916;-77
2022/08/16 04:50:54;;;;;;;;;;;17.10;58.90;;;;;;5088198;28;19919;-77
2022/08/16 04:53:19;;;;;;;;;;;17.10;58.80;;;;;;5071245;28;19918;-76
2022/08/16 04:55:45;;;;;;;;;;;17.10;58.90;;;;;;5089556;28;19916;-76
2022/08/16 04:58:11;;;;;;;;;;;17.00;58.90;;;;;;5089414;28;20269;-76
2022/08/16 05:00:36;;;;;;;;;;;17.00;58.90;;;;;;5089449;28;19915;-77
2022/08/16 05:03:04;;;;;;;;;;;16.90;59.00;;;;;;5071397;28;19955;-77
2022/08/16 05:05:30;;;;;;;;;;;16.90;59.10;;;;;;5089377;28;19962;-76
2022/08/16 05:07:56;;;;;;;;;;;16.80;59.10;;;;;;5088058;28;19912;-77
2022/08/16 05:10:22;;;;;;;;;;;16.80;59.10;;;;;;5088114;28;19965;-77
2022/08/16 05:12:47;;;;;;;;;;;16.80;59.20;;;;;;5088400;28;20356;-76
2022/08/16 05:15:13;;;;;;;;;;;16.80;59.10;;;;;;5089184;28;19972;-76
2022/08/16 05:17:39;;;;;;;;;;;16.80;59.10;;;;;;5088992;28;19912;-77
2022/08/16 05:20:06;;;;;;;;;;;16.90;59.10;;;;;;5089235;28;19938;-77
2022/08/16 05:22:31;;;;;;;;;;;16.90;59.00;;;;;;5089138;28;19915;-77
2022/08/16 05:24:57;;;;;;;;;;;16.90;59.00;;;;;;5087271;28;19916;-77
2022/08/16 05:27:23;;;;;;;;;;;16.90;59.00;;;;;;5088773;28;19912;-77
2022/08/16 05:29:48;;;;;;;;;;;16.90;59.00;;;;;;5087457;28;19912;-77
2022/08/16 05:32:14;;;;;;;;;;;16.90;59.00;;;;;;5089124;28;19958;-76
2022/08/16 05:34:39;;;;;;;;;;;16.90;59.00;;;;;;5070774;28;20317;-76
2022/08/16 05:37:05;;;;;;;;;;;16.80;58.90;;;;;;5088759;28;19916;-76
2022/08/16 05:39:30;;;;;;;;;;;16.80;59.00;;;;;;5087901;28;19918;-77
2022/08/16 05:41:56;;;;;;;;;;;16.80;59.00;;;;;;5087497;28;20322;-76
2022/08/16 05:44:22;;;;;;;;;;;16.90;59.00;;;;;;5088620;28;20003;-76
2022/08/16 05:46:49;;;;;;;;;;;16.90;58.90;;;;;;5070435;28;19919;-77
2022/08/16 05:49:15;;;;;;;;;;;16.90;58.80;;;;;;5087311;28;19909;-76
2022/08/16 05:51:42;;;;;;;;;;;17.00;59.00;;;;;;5087143;28;19934;-76
2022/08/16 05:54:11;;;;;;;;;;;17.00;58.90;;;;;;5086768;28;19912;-77
2022/08/16 05:56:37;;;;;;;;;;;17.00;58.90;;;;;;5087087;28;19912;-76
2022/08/16 05:59:04;;;;;;;;;;;17.00;58.80;;;;;;5086576;28;20082;-76
2022/08/16 06:01:29;;;;;;;;;;;17.10;58.90;;;;;;5088305;28;19965;-76
2022/08/16 06:03:55;;;;;;;;;;;17.10;58.80;;;;;;5086996;28;19912;-77
2022/08/16 06:06:20;;;;;;;;;;;17.10;58.70;;;;;;5087097;28;20011;-77
2022/08/16 06:08:46;;;;;;;;;;;17.10;58.70;;;;;;5069999;28;19912;-77
2022/08/16 06:11:11;;;;;;;;;;;17.10;58.80;;;;;;5088351;28;20328;-77
2022/08/16 06:13:37;;;;;;;;;;;17.10;58.80;;;;;;5087893;28;19920;-76
2022/08/16 06:16:04;;;;;;;;;;;17.00;58.80;;;;;;5086329;28;20371;-77
2022/08/16 06:18:30;;;;;;;;;;;17.00;58.90;;;;;;5086724;28;19974;-76
2022/08/16 06:20:56;;;;;;;;;;;16.90;59.00;;;;;;5087840;28;20411;-76
2022/08/16 06:23:22;;;;;;;;;;;16.90;59.10;;;;;;5086664;28;19916;-76
2022/08/16 06:25:48;;;;;;;;;;;16.90;59.10;;;;;;5087872;28;19919;-77
2022/08/16 06:28:13;;;;;;;;;;;17.00;59.00;;;;;;5086603;28;19916;-76
2022/08/16 06:30:39;;;;;;;;;;;17.00;58.90;;;;;;5086761;28;19916;-77
2022/08/16 06:33:05;;;;;;;;;;;17.00;58.90;;;;;;5086773;28;19912;-77
2022/08/16 06:35:30;;;;;;;;;;;17.10;58.90;;;;;;5086407;28;19954;-78
2022/08/16 06:37:56;;;;;;;;;;;17.10;58.90;;;;;;5087581;28;19919;-78
2022/08/16 06:40:23;;;;;;;;;;;17.10;58.90;;;;;;5090537;28;19939;-77
2022/08/16 06:42:51;;;;;;;;;;;17.00;58.90;;;;;;5092080;28;19912;-77
2022/08/16 06:45:16;;;;;;;;;;;17.00;58.90;;;;;;5090768;28;20364;-76
2022/08/16 06:47:43;;;;;;;;;;;16.90;59.00;;;;;;5091757;28;19919;-76
2022/08/16 06:50:09;;;;;;;;;;;17.00;59.10;;;;;;5090318;28;19908;-76
2022/08/16 06:52:35;;;;;;;;;;;17.00;59.00;;;;;;5090383;28;19912;-76
2022/08/16 06:55:02;;;;;;;;;;;17.00;58.90;;;;;;5090139;28;19916;-75
2022/08/16 06:57:28;;;;;;;;;;;16.90;59.00;;;;;;5091558;28;19915;-76
2022/08/16 06:59:53;;;;;;;;;;;16.80;59.10;;;;;;5090559;28;20360;-76
2022/08/16 07:02:19;;;;;;;;;;;16.80;59.10;;;;;;5089846;28;19931;-76
2022/08/16 07:04:45;;;;;;;;;;;16.90;59.10;;;;;;5089826;28;19938;-76
2022/08/16 07:07:11;;;;;;;;;;;16.80;59.10;;;;;;5089955;28;19936;-77
2022/08/16 07:09:37;;;;;;;;;;;16.80;59.10;;;;;;5092278;28;20082;-77
2022/08/16 07:12:03;;;;;;;;;;;16.80;59.10;;;;;;5090670;28;19908;-77
2022/08/16 07:14:28;;;;;;;;;;;16.90;59.30;;;;;;5091299;28;19916;-78
2022/08/16 07:16:56;;;;;;;;;;;16.90;59.10;;;;;;5091356;28;19916;-77
2022/08/16 07:19:22;;;;;;;;;;;17.00;59.00;;;;;;5091409;28;19916;-78
2022/08/16 07:21:47;;;;;;;;;;;16.90;58.90;;;;;;5090109;28;20429;-77
2022/08/16 07:24:13;;;;;;;;;;;16.90;59.00;;;;;;5090059;28;19965;-77
2022/08/16 07:26:38;;;;;;;;;;;16.80;59.00;;;;;;5089901;28;19961;-78
2022/08/16 07:29:04;;;;;;;;;;;16.80;59.50;;;;;;5089821;28;19912;-77
2022/08/16 07:31:29;;;;;;;;;;;16.80;59.10;;;;;;5089607;28;19916;-78
2022/08/16 07:33:55;;;;;;;;;;;16.80;59.10;;;;;;5089950;28;19916;-78
2022/08/16 07:36:21;;;;;;;;;;;16.80;59.00;;;;;;5089528;28;19912;-78
2022/08/16 07:38:46;;;;;;;;;;;16.80;59.30;;;;;;5073084;28;19912;-78
2022/08/16 07:41:12;;;;;;;;;;;16.70;59.10;;;;;;5088985;28;19968;-78
2022/08/16 07:43:38;;;;;;;;;;;16.70;59.10;;;;;;5089517;28;19960;-78
2022/08/16 07:46:04;;;;;;;;;;;16.80;59.20;;;;;;5090609;28;20261;-78
2022/08/16 07:48:29;;;;;;;;;;;16.90;59.20;;;;;;5088783;28;20467;-78
2022/08/16 07:50:55;;;;;;;;;;;17.00;59.20;;;;;;5090649;28;19958;-75
2022/08/16 07:53:21;;;;;;;;;;;17.00;59.00;;;;;;5089116;28;19961;-75
2022/08/16 07:55:47;;;;;;;;;;;17.00;59.00;;;;;;5090473;28;19916;-75
2022/08/16 07:58:13;;;;;;;;;;;17.00;59.10;;;;;;5088960;28;19912;-76
2022/08/16 08:00:38;;;;;;;;;;;17.00;59.20;;;;;;5090362;28;20025;-75
2022/08/16 08:03:04;;;;;;;;;;;17.00;59.10;;;;;;5088974;28;19912;-78
2022/08/16 08:05:30;;;;;;;;;;;17.10;59.20;;;;;;5088621;28;19958;-78
2022/08/16 08:07:56;;;;;;;;;;;17.10;59.20;;;;;;5089843;28;19915;-78
2022/08/16 08:10:22;;;;;;;;;;;17.20;59.20;;;;;;5088680;28;19912;-78
2022/08/16 08:12:49;;;;;;;;;;;17.40;59.20;;;;;;5088859;28;20028;-76
2022/08/16 08:15:15;;;;;;;;;;;17.70;59.50;;;;;;5088630;28;19912;-76
2022/08/16 08:17:41;;;;;;;;;;;18.10;59.40;;;;;;5088693;28;19909;-76
2022/08/16 08:20:07;;;;;;;;;;;18.30;59.10;;;;;;5089845;28;19928;-76
2022/08/16 08:22:33;;;;;;;;;;;18.60;59.00;;;;;;5088681;28;19961;-75
2022/08/16 08:24:59;;;;;;;;;;;18.80;58.80;;;;;;5090092;28;19912;-78
2022/08/16 08:27:25;;;;;;;;;;;18.80;58.60;;;;;;5088651;28;19913;-75
2022/08/16 08:29:50;;;;;;;;;;;18.80;58.70;;;;;;5089846;28;19912;-78
2022/08/16 08:32:19;;;;;;;;;;;18.80;59.00;;;;;;5089832;28;20378;-78
2022/08/16 08:34:44;;;;;;;;;;;19.10;59.00;;;;;;5071719;28;19916;-78
2022/08/16 08:37:10;;;;;;;;;;;19.30;58.70;;;;;;5071494;28;20045;-78
2022/08/16 08:39:37;;;;;;;;;;;19.40;58.60;;;;;;5071191;28;19918;-78
2022/08/16 08:42:04;;;;;;;;;;;19.60;58.60;;;;;;5089279;28;19927;-77
2022/08/16 08:44:30;;;;;;;;;;;19.70;58.60;;;;;;5088577;28;19912;-78
2022/08/16 08:47:00;;;;;;;;;;;19.90;58.70;;;;;;5087740;28;19912;-78
2022/08/16 08:49:25;;;;;;;;;;;20.10;58.50;;;;;;5089198;28;19927;-78
2022/08/16 08:51:51;;;;;;;;;;;20.20;58.50;;;;;;5089103;28;19916;-78
2022/08/16 08:54:17;;;;;;;;;;;20.20;58.70;;;;;;5087931;28;19948;-78
2022/08/16 08:56:43;;;;;;;;;;;20.90;59.90;;;;;;5089571;28;20002;-78
2022/08/16 08:59:09;;;;;;;;;;;22.00;59.30;;;;;;5089522;28;19965;-74
2022/08/16 09:01:35;;;;;;;;;;;22.50;58.60;;;;;;5089825;28;20528;-77
2022/08/16 09:04:06;;;;;;;;;;;22.80;58.40;;;;;;5091410;28;20395;-74
2022/08/16 09:06:32;;;;;;;;;;;22.90;58.60;;;;;;5089948;28;19909;-75
2022/08/16 09:08:58;;;;;;;;;;;23.50;59.00;;;;;;5090889;28;20011;-75
2022/08/16 09:11:24;;;;;;;;;;;23.80;58.50;;;;;;5089840;28;20344;-75
2022/08/16 09:13:50;;;;;;;;;;;24.00;58.50;;;;;;5091091;28;19915;-75
2022/08/16 09:16:16;;;;;;;;;;;24.10;58.60;;;;;;5067531;28;19917;-75
2022/08/16 09:18:42;;;;;;;;;;;24.20;58.70;;;;;;5071069;28;19951;-76
2022/08/16 09:21:08;;;;;;;;;;;24.40;59.00;;;;;;5072196;28;19912;-75
2022/08/16 09:23:34;;;;;;;;;;;24.90;58.90;;;;;;5088991;28;19944;-75
2022/08/16 09:26:00;;;;;;;;;;;25.20;58.80;;;;;;5089220;28;19912;-75
2022/08/16 09:28:27;;;;;;;;;;;25.40;59.10;;;;;;5089800;28;20634;-76
2022/08/16 09:30:53;;;;;;;;;;;25.90;59.00;;;;;;5069881;28;20001;-75
2022/08/16 09:33:19;;;;;;;;;;;25.90;58.60;;;;;;5088911;28;19920;-74
2022/08/16 09:35:45;;;;;;;;;;;25.80;58.70;;;;;;5088871;28;19913;-76
2022/08/16 09:38:12;;;;;;;;;;;25.70;58.80;;;;;;5085668;28;20356;-76
2022/08/16 09:40:40;;;;;;;;;;;25.90;59.10;;;;;;5088345;28;19928;-76
2022/08/16 09:43:06;;;;;;;;;;;26.40;59.80;;;;;;5077115;28;20422;-77
2022/08/16 09:45:37;;;;;;;;;;;27.00;59.80;;;;;;5088448;28;19916;-77
2022/08/16 09:48:07;;;;;;;;;;;27.40;59.70;;;;;;5089188;28;19912;-77
2022/08/16 09:50:34;;;;;;;;;;;28.20;60.00;;;;;;5089682;28;20340;-77
2022/08/16 09:53:01;;;;;;;;;;;29.10;60.00;;;;;;5072380;28;19955;-78
2022/08/16 09:55:26;;;;;;;;;;;29.10;58.90;;;;;;5088843;28;19939;-77
2022/08/16 09:57:52;;;;;;;;;;;28.30;58.50;;;;;;5089755;28;20546;-77
2022/08/16 10:00:17;;;;;;;;;;;27.50;58.80;;;;;;5088822;28;19944;-77
2022/08/16 10:02:43;;;;;;;;;;;26.70;59.10;;;;;;5089775;28;19912;-78
2022/08/16 10:05:10;;;;;;;;;;;26.20;59.70;;;;;;5089728;28;20034;-78
2022/08/16 10:07:35;;;;;;;;;;;25.90;60.00;;;;;;5090646;28;19908;-77
2022/08/16 10:10:01;;;;;;;;;;;26.10;60.90;;;;;;5088717;28;19915;-78
2022/08/16 10:15:13;;;;;;;;;;;27.50;60.30;;;;;;5089813;28;20394;-78
2022/08/16 10:17:41;;;;;;;;;;;27.70;60.00;;;;;;5089686;28;19947;-78
2022/08/16 10:20:10;;;;;;;;;;;27.70;59.50;;;;;;5089843;28;19908;-78
2022/08/16 10:22:37;;;;;;;;;;;27.60;59.00;;;;;;5088821;28;19912;-75
2022/08/16 10:25:03;;;;;;;;;;;27.20;58.30;;;;;;5090173;28;19930;-77
2022/08/16 10:27:29;;;;;;;;;;;26.40;58.20;;;;;;5071113;28;19955;-75
2022/08/16 10:29:54;;;;;;;;;;;25.80;59.00;;;;;;5089196;28;19997;-74
2022/08/16 10:32:20;;;;;;;;;;;25.80;59.60;;;;;;5088340;28;19944;-75
2022/08/16 10:34:45;;;;;;;;;;;25.60;59.50;;;;;;5087816;28;20337;-77
2022/08/16 10:37:11;;;;;;;;;;;25.30;59.30;;;;;;5088811;28;19961;-76
2022/08/16 10:39:38;;;;;;;;;;;25.30;59.50;;;;;;5088694;28;20003;-75
2022/08/16 10:42:05;;;;;;;;;;;25.20;59.50;;;;;;5089395;28;19920;-74
2022/08/16 10:44:31;;;;;;;;;;;25.20;59.40;;;;;;5087626;28;20110;-75
2022/08/16 10:46:56;;;;;;;;;;;25.80;60.50;;;;;;5087299;28;19947;-75
2022/08/16 10:49:22;;;;;;;;;;;26.30;59.80;;;;;;5089103;28;19915;-75
2022/08/16 10:51:48;;;;;;;;;;;26.10;59.10;;;;;;5087204;28;19985;-75
2022/08/16 10:54:14;;;;;;;;;;;25.90;59.60;;;;;;5086348;28;19916;-73
2022/08/16 10:56:39;;;;;;;;;;;26.50;60.40;;;;;;5087913;28;19917;-74
2022/08/16 10:59:05;;;;;;;;;;;27.00;59.80;;;;;;5088438;28;20360;-77
2022/08/16 11:01:30;;;;;;;;;;;27.60;60.30;;;;;;5088006;28;19912;-78
2022/08/16 11:03:56;;;;;;;;;;;28.40;60.30;;;;;;5088579;28;19931;-74
2022/08/16 11:06:22;;;;;;;;;;;28.60;59.60;;;;;;5085400;28;20050;-76
2022/08/16 11:08:48;;;;;;;;;;;28.30;59.20;;;;;;5082811;28;19958;-76
2022/08/16 11:11:14;;;;;;;;;;;28.00;59.60;;;;;;5080222;28;20008;-75
2022/08/16 11:13:40;;;;;;;;;;;28.20;60.60;;;;;;5087156;28;20257;-77
2022/08/16 11:16:06;;;;;;;;;;;29.00;60.60;;;;;;5088561;28;19953;-74
2022/08/16 11:18:32;;;;;;;;;;;29.60;59.90;;;;;;5086456;28;19914;-76
2022/08/16 11:20:58;;;;;;;;;;;29.40;59.30;;;;;;5087136;28;19961;-76
2022/08/16 11:23:24;;;;;;;;;;;29.30;59.70;;;;;;5088602;28;19912;-75
2022/08/16 11:25:50;;;;;;;;;;;29.20;59.50;;;;;;5092408;28;19916;-73
2022/08/16 11:28:16;;;;;;;;;;;28.80;59.20;;;;;;5091955;28;19970;-74
2022/08/16 11:30:42;;;;;;;;;;;28.30;59.40;;;;;;5091379;28;19916;-75
2022/08/16 11:33:08;;;;;;;;;;;28.20;59.90;;;;;;5090255;28;20438;-74
2022/08/16 11:35:34;;;;;;;;;;;28.30;60.10;;;;;;5089872;28;19923;-75
2022/08/16 11:38:03;;;;;;;;;;;28.10;59.70;;;;;;5090028;28;19996;-75
2022/08/16 11:40:31;;;;;;;;;;;27.70;59.40;;;;;;5091099;28;19924;-75
2022/08/16 11:42:57;;;;;;;;;;;27.10;59.20;;;;;;5091601;28;19908;-76
2022/08/16 11:45:23;;;;;;;;;;;26.40;59.20;;;;;;5092269;28;19912;-74
2022/08/16 11:47:49;;;;;;;;;;;25.80;59.40;;;;;;5091260;28;19912;-80
2022/08/16 11:50:15;;;;;;;;;;;25.40;59.50;;;;;;5092081;28;19985;-75
2022/08/16 11:52:41;;;;;;;;;;;25.10;59.60;;;;;;5090595;28;19973;-74
2022/08/16 11:55:08;;;;;;;;;;;25.00;59.70;;;;;;5091952;28;19955;-75
2022/08/16 11:57:34;;;;;;;;;;;24.90;59.60;;;;;;5091626;28;19915;-74
2022/08/16 11:59:59;;;;;;;;;;;24.70;59.40;;;;;;5091428;28;19999;-74
2022/08/16 12:02:25;;;;;;;;;;;24.50;59.50;;;;;;5091513;28;19958;-73
2022/08/16 12:04:51;;;;;;;;;;;24.30;59.40;;;;;;5090767;28;19935;-78
2022/08/16 12:07:16;;;;;;;;;;;24.10;59.40;;;;;;5091354;28;19957;-77
2022/08/16 12:09:42;;;;;;;;;;;23.80;59.40;;;;;;5092048;28;20383;-76
2022/08/16 12:12:08;;;;;;;;;;;23.70;59.50;;;;;;5090232;28;19999;-75
2022/08/16 12:14:34;;;;;;;;;;;23.50;59.50;;;;;;5089663;28;19966;-72
2022/08/16 12:17:01;;;;;;;;;;;23.50;59.50;;;;;;5091188;28;19943;-75
2022/08/16 12:19:28;;;;;;;;;;;23.50;59.40;;;;;;5089606;28;19990;-74
2022/08/16 12:21:54;;;;;;;;;;;23.50;59.40;;;;;;5091126;28;20019;-82
2022/08/16 12:24:20;;;;;;;;;;;23.40;59.30;;;;;;5089469;28;20264;-75
2022/08/16 12:26:45;;;;;;;;;;;23.30;59.30;;;;;;5089807;28;20319;-74
2022/08/16 12:29:11;;;;;;;;;;;23.20;59.20;;;;;;5089481;28;19912;-74
2022/08/16 12:31:36;;;;;;;;;;;23.10;59.10;;;;;;5089339;28;19908;-73
2022/08/16 12:34:06;;;;;;;;;;;22.90;59.00;;;;;;5091201;28;20383;-74
2022/08/16 12:36:33;;;;;;;;;;;22.70;59.00;;;;;;5091484;28;19909;-74
2022/08/16 12:38:59;;;;;;;;;;;22.50;59.20;;;;;;5089825;28;19927;-76
2022/08/16 12:41:24;;;;;;;;;;;22.40;59.30;;;;;;5089388;28;20017;-78
2022/08/16 12:43:50;;;;;;;;;;;22.30;59.30;;;;;;5090904;28;19938;-75
2022/08/16 12:46:16;;;;;;;;;;;22.40;59.30;;;;;;5088955;28;19912;-75
2022/08/16 12:48:57;;;;;;;;;;;22.40;59.10;;;;;;5090154;28;19912;-73
2022/08/16 12:51:30;;;;;;;;;;;22.40;59.00;;;;;;5088764;28;19916;-74
2022/08/16 12:53:56;;;;;;;;;;;22.40;59.10;;;;;;5090883;28;20019;-73
2022/08/16 12:56:24;;;;;;;;;;;22.40;59.10;;;;;;5090278;28;19916;-76
2022/08/16 12:58:50;;;;;;;;;;;22.50;59.10;;;;;;5088754;28;20575;-75
2022/08/16 13:01:21;;;;;;;;;;;22.50;59.00;;;;;;5088702;28;19949;-78
2022/08/16 13:03:46;;;;;;;;;;;22.60;59.00;;;;;;5089151;28;20418;-78
2022/08/16 13:06:13;;;;;;;;;;;22.80;58.90;;;;;;5090300;28;19916;-77
2022/08/16 13:08:39;;;;;;;;;;;22.80;58.80;;;;;;5089939;28;19950;-74
2022/08/16 13:11:06;;;;;;;;;;;22.80;58.80;;;;;;5090129;28;19908;-79
2022/08/16 13:13:33;;;;;;;;;;;22.70;58.80;;;;;;5089048;28;19915;-75
2022/08/16 13:16:00;;;;;;;;;;;22.80;58.80;;;;;;5089962;28;19947;-75
2022/08/16 13:18:26;;;;;;;;;;;22.90;58.80;;;;;;5090435;28;19934;-76
2022/08/16 13:20:52;;;;;;;;;;;22.80;58.60;;;;;;5090342;28;19916;-75
2022/08/16 13:23:18;;;;;;;;;;;22.80;58.70;;;;;;5090361;28;19998;-73
2022/08/16 13:25:45;;;;;;;;;;;22.70;58.70;;;;;;5089994;28;19934;-76
2022/08/16 13:28:11;;;;;;;;;;;22.50;58.60;;;;;;5088702;28;19953;-77
2022/08/16 13:30:39;;;;;;;;;;;22.50;58.80;;;;;;5089978;28;20023;-74
2022/08/16 13:33:05;;;;;;;;;;;22.50;58.90;;;;;;5089312;28;20502;-75
2022/08/16 13:35:33;;;;;;;;;;;22.60;58.70;;;;;;5089659;28;20026;-75
2022/08/16 13:37:58;;;;;;;;;;;22.70;58.70;;;;;;5088221;28;20307;-75
2022/08/16 13:40:24;;;;;;;;;;;22.80;58.60;;;;;;5088854;28;19924;-74
2022/08/16 13:42:51;;;;;;;;;;;22.80;58.70;;;;;;5088459;28;19922;-75
2022/08/16 13:45:17;;;;;;;;;;;22.80;58.60;;;;;;5088187;28;19951;-75
2022/08/16 13:47:43;;;;;;;;;;;22.70;59.10;;;;;;5070506;28;19963;-74
2022/08/16 13:50:09;;;;;;;;;;;22.60;58.60;;;;;;5089560;28;19917;-74
2022/08/16 13:52:35;;;;;;;;;;;22.60;58.70;;;;;;5088691;28;19980;-75
2022/08/16 13:55:00;;;;;;;;;;;22.70;58.60;;;;;;5087891;28;20286;-75
2022/08/16 13:57:26;;;;;;;;;;;22.80;58.40;;;;;;5070078;28;19913;-75
2022/08/16 13:59:52;;;;;;;;;;;22.80;58.30;;;;;;5089678;28;19913;-75
2022/08/16 14:02:17;;;;;;;;;;;22.80;58.30;;;;;;5070918;28;19951;-76
2022/08/16 14:04:43;;;;;;;;;;;22.80;58.40;;;;;;5088330;28;19916;-75
2022/08/16 14:07:10;;;;;;;;;;;22.80;58.50;;;;;;5088502;28;19962;-75
2022/08/16 14:09:37;;;;;;;;;;;22.80;58.50;;;;;;5089265;28;19999;-75
2022/08/16 14:12:03;;;;;;;;;;;22.90;58.60;;;;;;5089438;28;19912;-75